sensor_id;sensor_type;location;lat;lon;timestamp;P1;durP1;ratioP1;P2;durP2;ratioP2
5345;SDS011;2695;49.444;11.054;2023-07-29T00:00:53;3.00;;;2.17;;
5345;SDS011;2695;49.444;11.054;2023-07-29T00:03:24;3.27;;;2.63;;
5345;SDS011;2695;49.444;11.054;2023-07-29T00:05:53;6.10;;;3.03;;
5345;SDS011;2695;49.444;11.054;2023-07-29T00:08:21;3.37;;;2.50;;
5345;SDS011;2695;49.444;11.054;2023-07-29T00:10:49;4.03;;;2.40;;
5345;SDS011;2695;49.444;11.054;2023-07-29T00:13:17;2.40;;;2.10;;
5345;SDS011;2695;49.444;11.054;2023-07-29T00:15:47;3.10;;;2.37;;
5345;SDS011;2695;49.444;11.054;2023-07-29T00:18:17;3.13;;;2.33;;
5345;SDS011;2695;49.444;11.054;2023-07-29T00:20:45;3.13;;;2.73;;
5345;SDS011;2695;49.444;11.054;2023-07-29T00:23:13;2.70;;;2.37;;
5345;SDS011;2695;49.444;11.054;2023-07-29T00:25:43;5.20;;;3.17;;
5345;SDS011;2695;49.444;11.054;2023-07-29T00:28:11;5.30;;;3.73;;
5345;SDS011;2695;49.444;11.054;2023-07-29T00:30:39;3.70;;;3.20;;
5345;SDS011;2695;49.444;11.054;2023-07-29T00:33:07;5.30;;;3.87;;
5345;SDS011;2695;49.444;11.054;2023-07-29T00:35:36;7.60;;;3.10;;
5345;SDS011;2695;49.444;11.054;2023-07-29T00:38:04;4.40;;;3.40;;
5345;SDS011;2695;49.444;11.054;2023-07-29T00:40:32;5.10;;;3.97;;
5345;SDS011;2695;49.444;11.054;2023-07-29T00:43:03;7.07;;;4.10;;
5345;SDS011;2695;49.444;11.054;2023-07-29T00:45:31;7.00;;;3.60;;
5345;SDS011;2695;49.444;11.054;2023-07-29T00:48:00;3.57;;;3.20;;
5345;SDS011;2695;49.444;11.054;2023-07-29T00:50:29;3.70;;;3.10;;
5345;SDS011;2695;49.444;11.054;2023-07-29T00:53:00;8.47;;;3.23;;
5345;SDS011;2695;49.444;11.054;2023-07-29T00:55:28;3.53;;;3.10;;
5345;SDS011;2695;49.444;11.054;2023-07-29T00:57:56;5.73;;;3.37;;
5345;SDS011;2695;49.444;11.054;2023-07-29T01:00:25;3.80;;;3.43;;
5345;SDS011;2695;49.444;11.054;2023-07-29T01:02:53;6.13;;;2.77;;
5345;SDS011;2695;49.444;11.054;2023-07-29T01:05:21;3.43;;;3.03;;
5345;SDS011;2695;49.444;11.054;2023-07-29T01:07:55;3.10;;;2.90;;
5345;SDS011;2695;49.444;11.054;2023-07-29T01:10:31;8.10;;;3.50;;
5345;SDS011;2695;49.444;11.054;2023-07-29T01:13:10;5.43;;;3.50;;
5345;SDS011;2695;49.444;11.054;2023-07-29T01:15:44;3.33;;;2.90;;
5345;SDS011;2695;49.444;11.054;2023-07-29T01:18:21;3.70;;;3.40;;
5345;SDS011;2695;49.444;11.054;2023-07-29T01:20:51;13.90;;;3.30;;
5345;SDS011;2695;49.444;11.054;2023-07-29T01:23:24;7.47;;;3.80;;
5345;SDS011;2695;49.444;11.054;2023-07-29T01:25:53;3.40;;;3.10;;
5345;SDS011;2695;49.444;11.054;2023-07-29T01:28:21;3.83;;;3.20;;
5345;SDS011;2695;49.444;11.054;2023-07-29T01:30:49;6.43;;;3.43;;
5345;SDS011;2695;49.444;11.054;2023-07-29T01:33:25;3.83;;;2.83;;
5345;SDS011;2695;49.444;11.054;2023-07-29T01:35:55;2.87;;;2.50;;
5345;SDS011;2695;49.444;11.054;2023-07-29T01:38:29;4.20;;;3.20;;
5345;SDS011;2695;49.444;11.054;2023-07-29T01:41:01;3.20;;;2.33;;
5345;SDS011;2695;49.444;11.054;2023-07-29T01:43:29;3.73;;;3.40;;
5345;SDS011;2695;49.444;11.054;2023-07-29T01:45:58;4.67;;;3.30;;
5345;SDS011;2695;49.444;11.054;2023-07-29T01:48:27;4.23;;;3.20;;
5345;SDS011;2695;49.444;11.054;2023-07-29T01:50:56;3.50;;;2.90;;
5345;SDS011;2695;49.444;11.054;2023-07-29T01:53:24;4.70;;;3.90;;
5345;SDS011;2695;49.444;11.054;2023-07-29T01:55:54;4.07;;;2.73;;
5345;SDS011;2695;49.444;11.054;2023-07-29T01:58:23;4.80;;;3.13;;
5345;SDS011;2695;49.444;11.054;2023-07-29T02:00:51;4.50;;;3.23;;
5345;SDS011;2695;49.444;11.054;2023-07-29T02:03:19;5.37;;;3.50;;
5345;SDS011;2695;49.444;11.054;2023-07-29T02:05:47;4.13;;;3.77;;
5345;SDS011;2695;49.444;11.054;2023-07-29T02:08:15;4.07;;;3.40;;
5345;SDS011;2695;49.444;11.054;2023-07-29T02:10:43;5.87;;;4.40;;
5345;SDS011;2695;49.444;11.054;2023-07-29T02:13:13;6.30;;;4.30;;
5345;SDS011;2695;49.444;11.054;2023-07-29T02:15:41;4.73;;;3.30;;
5345;SDS011;2695;49.444;11.054;2023-07-29T02:18:09;6.27;;;3.50;;
5345;SDS011;2695;49.444;11.054;2023-07-29T02:20:37;3.67;;;3.37;;
5345;SDS011;2695;49.444;11.054;2023-07-29T02:23:05;3.73;;;3.30;;
5345;SDS011;2695;49.444;11.054;2023-07-29T02:25:34;4.07;;;3.10;;
5345;SDS011;2695;49.444;11.054;2023-07-29T02:28:03;3.53;;;3.23;;
5345;SDS011;2695;49.444;11.054;2023-07-29T02:30:32;5.90;;;3.80;;
5345;SDS011;2695;49.444;11.054;2023-07-29T02:33:00;7.23;;;4.20;;
5345;SDS011;2695;49.444;11.054;2023-07-29T02:35:28;14.23;;;5.10;;
5345;SDS011;2695;49.444;11.054;2023-07-29T02:37:56;6.10;;;4.50;;
5345;SDS011;2695;49.444;11.054;2023-07-29T02:40:24;6.90;;;4.73;;
5345;SDS011;2695;49.444;11.054;2023-07-29T02:42:53;7.30;;;4.23;;
5345;SDS011;2695;49.444;11.054;2023-07-29T02:45:21;6.27;;;4.70;;
5345;SDS011;2695;49.444;11.054;2023-07-29T02:47:50;9.77;;;4.00;;
5345;SDS011;2695;49.444;11.054;2023-07-29T02:50:19;7.13;;;4.40;;
5345;SDS011;2695;49.444;11.054;2023-07-29T02:52:46;6.73;;;3.87;;
5345;SDS011;2695;49.444;11.054;2023-07-29T02:55:17;4.63;;;3.73;;
5345;SDS011;2695;49.444;11.054;2023-07-29T02:57:45;4.90;;;3.90;;
5345;SDS011;2695;49.444;11.054;2023-07-29T03:00:13;3.60;;;3.17;;
5345;SDS011;2695;49.444;11.054;2023-07-29T03:02:41;4.87;;;3.63;;
5345;SDS011;2695;49.444;11.054;2023-07-29T03:05:11;4.40;;;3.87;;
5345;SDS011;2695;49.444;11.054;2023-07-29T03:07:39;4.30;;;3.90;;
5345;SDS011;2695;49.444;11.054;2023-07-29T03:10:07;7.00;;;3.97;;
5345;SDS011;2695;49.444;11.054;2023-07-29T03:12:37;4.30;;;3.90;;
5345;SDS011;2695;49.444;11.054;2023-07-29T03:15:05;5.37;;;4.40;;
5345;SDS011;2695;49.444;11.054;2023-07-29T03:17:34;4.60;;;3.90;;
5345;SDS011;2695;49.444;11.054;2023-07-29T03:20:02;5.70;;;4.20;;
5345;SDS011;2695;49.444;11.054;2023-07-29T03:22:32;6.77;;;4.43;;
5345;SDS011;2695;49.444;11.054;2023-07-29T03:25:01;8.13;;;6.47;;
5345;SDS011;2695;49.444;11.054;2023-07-29T03:27:29;15.30;;;13.70;;
5345;SDS011;2695;49.444;11.054;2023-07-29T03:29:58;18.70;;;16.80;;
5345;SDS011;2695;49.444;11.054;2023-07-29T03:32:26;17.90;;;16.20;;
5345;SDS011;2695;49.444;11.054;2023-07-29T03:34:55;15.87;;;13.60;;
5345;SDS011;2695;49.444;11.054;2023-07-29T03:37:23;9.77;;;8.73;;
5345;SDS011;2695;49.444;11.054;2023-07-29T03:39:53;7.57;;;6.40;;
5345;SDS011;2695;49.444;11.054;2023-07-29T03:42:21;6.77;;;5.80;;
5345;SDS011;2695;49.444;11.054;2023-07-29T03:44:49;7.47;;;5.57;;
5345;SDS011;2695;49.444;11.054;2023-07-29T03:47:17;7.33;;;6.20;;
5345;SDS011;2695;49.444;11.054;2023-07-29T03:49:45;7.13;;;6.20;;
5345;SDS011;2695;49.444;11.054;2023-07-29T03:52:13;9.13;;;6.20;;
5345;SDS011;2695;49.444;11.054;2023-07-29T03:54:41;9.93;;;7.23;;
5345;SDS011;2695;49.444;11.054;2023-07-29T03:57:11;8.17;;;7.30;;
5345;SDS011;2695;49.444;11.054;2023-07-29T03:59:39;7.90;;;6.60;;
5345;SDS011;2695;49.444;11.054;2023-07-29T04:02:06;7.70;;;5.03;;
5345;SDS011;2695;49.444;11.054;2023-07-29T04:04:35;5.70;;;3.73;;
5345;SDS011;2695;49.444;11.054;2023-07-29T04:07:03;5.23;;;4.57;;
5345;SDS011;2695;49.444;11.054;2023-07-29T04:09:33;4.93;;;4.30;;
5345;SDS011;2695;49.444;11.054;2023-07-29T04:12:01;4.60;;;4.20;;
5345;SDS011;2695;49.444;11.054;2023-07-29T04:14:31;4.77;;;3.20;;
5345;SDS011;2695;49.444;11.054;2023-07-29T04:17:00;7.27;;;3.70;;
5345;SDS011;2695;49.444;11.054;2023-07-29T04:19:28;4.07;;;3.63;;
5345;SDS011;2695;49.444;11.054;2023-07-29T04:21:56;4.10;;;3.27;;
5345;SDS011;2695;49.444;11.054;2023-07-29T04:24:24;4.20;;;2.73;;
5345;SDS011;2695;49.444;11.054;2023-07-29T04:26:52;4.87;;;3.40;;
5345;SDS011;2695;49.444;11.054;2023-07-29T04:29:20;3.83;;;2.77;;
5345;SDS011;2695;49.444;11.054;2023-07-29T04:31:50;3.30;;;2.80;;
5345;SDS011;2695;49.444;11.054;2023-07-29T04:34:18;3.43;;;2.60;;
5345;SDS011;2695;49.444;11.054;2023-07-29T04:36:47;2.57;;;2.37;;
5345;SDS011;2695;49.444;11.054;2023-07-29T04:39:16;4.70;;;2.80;;
5345;SDS011;2695;49.444;11.054;2023-07-29T04:41:44;5.60;;;2.77;;
5345;SDS011;2695;49.444;11.054;2023-07-29T04:44:12;2.97;;;2.38;;
5345;SDS011;2695;49.444;11.054;2023-07-29T04:46:40;3.85;;;2.45;;
5345;SDS011;2695;49.444;11.054;2023-07-29T04:49:09;3.33;;;2.53;;
5345;SDS011;2695;49.444;11.054;2023-07-29T04:51:37;3.80;;;2.88;;
5345;SDS011;2695;49.444;11.054;2023-07-29T04:54:05;2.85;;;2.33;;
5345;SDS011;2695;49.444;11.054;2023-07-29T04:56:34;6.35;;;2.35;;
5345;SDS011;2695;49.444;11.054;2023-07-29T04:59:02;2.38;;;2.10;;
5345;SDS011;2695;49.444;11.054;2023-07-29T05:01:30;5.03;;;3.40;;
5345;SDS011;2695;49.444;11.054;2023-07-29T05:03:59;1.77;;;1.67;;
5345;SDS011;2695;49.444;11.054;2023-07-29T05:06:28;2.17;;;1.98;;
5345;SDS011;2695;49.444;11.054;2023-07-29T05:08:56;7.90;;;2.40;;
5345;SDS011;2695;49.444;11.054;2023-07-29T05:11:25;2.35;;;2.03;;
5345;SDS011;2695;49.444;11.054;2023-07-29T05:13:53;3.45;;;2.75;;
5345;SDS011;2695;49.444;11.054;2023-07-29T05:16:21;2.40;;;2.20;;
5345;SDS011;2695;49.444;11.054;2023-07-29T05:18:49;2.93;;;2.20;;
5345;SDS011;2695;49.444;11.054;2023-07-29T05:21:17;1.67;;;1.57;;
5345;SDS011;2695;49.444;11.054;2023-07-29T05:23:46;5.33;;;1.83;;
5345;SDS011;2695;49.444;11.054;2023-07-29T05:26:15;3.03;;;1.90;;
5345;SDS011;2695;49.444;11.054;2023-07-29T05:28:43;6.67;;;1.60;;
5345;SDS011;2695;49.444;11.054;2023-07-29T05:31:11;2.80;;;1.77;;
5345;SDS011;2695;49.444;11.054;2023-07-29T05:33:39;2.20;;;2.00;;
5345;SDS011;2695;49.444;11.054;2023-07-29T05:36:07;2.53;;;1.87;;
5345;SDS011;2695;49.444;11.054;2023-07-29T05:38:35;2.63;;;2.00;;
5345;SDS011;2695;49.444;11.054;2023-07-29T05:41:05;3.03;;;2.20;;
5345;SDS011;2695;49.444;11.054;2023-07-29T05:43:33;3.60;;;2.00;;
5345;SDS011;2695;49.444;11.054;2023-07-29T05:46:01;2.20;;;2.00;;
5345;SDS011;2695;49.444;11.054;2023-07-29T05:48:30;2.03;;;1.67;;
5345;SDS011;2695;49.444;11.054;2023-07-29T05:50:59;2.40;;;2.20;;
5345;SDS011;2695;49.444;11.054;2023-07-29T05:53:27;5.53;;;2.13;;
5345;SDS011;2695;49.444;11.054;2023-07-29T05:55:55;2.23;;;1.50;;
5345;SDS011;2695;49.444;11.054;2023-07-29T05:58:25;4.07;;;1.90;;
5345;SDS011;2695;49.444;11.054;2023-07-29T06:00:54;3.47;;;2.20;;
5345;SDS011;2695;49.444;11.054;2023-07-29T06:03:23;4.07;;;2.03;;
5345;SDS011;2695;49.444;11.054;2023-07-29T06:05:51;2.67;;;1.90;;
5345;SDS011;2695;49.444;11.054;2023-07-29T06:08:20;2.53;;;2.10;;
5345;SDS011;2695;49.444;11.054;2023-07-29T06:10:49;3.00;;;2.00;;
5345;SDS011;2695;49.444;11.054;2023-07-29T06:13:19;2.70;;;2.13;;
5345;SDS011;2695;49.444;11.054;2023-07-29T06:15:49;3.00;;;2.50;;
5345;SDS011;2695;49.444;11.054;2023-07-29T06:18:17;10.13;;;2.60;;
5345;SDS011;2695;49.444;11.054;2023-07-29T06:20:45;2.63;;;2.43;;
5345;SDS011;2695;49.444;11.054;2023-07-29T06:23:13;3.00;;;2.60;;
5345;SDS011;2695;49.444;11.054;2023-07-29T06:25:41;2.70;;;2.20;;
5345;SDS011;2695;49.444;11.054;2023-07-29T06:28:09;2.70;;;2.10;;
5345;SDS011;2695;49.444;11.054;2023-07-29T06:30:38;4.30;;;2.70;;
5345;SDS011;2695;49.444;11.054;2023-07-29T06:33:08;4.23;;;2.50;;
5345;SDS011;2695;49.444;11.054;2023-07-29T06:35:36;6.00;;;3.80;;
5345;SDS011;2695;49.444;11.054;2023-07-29T06:38:04;4.83;;;3.13;;
5345;SDS011;2695;49.444;11.054;2023-07-29T06:40:32;4.50;;;3.00;;
5345;SDS011;2695;49.444;11.054;2023-07-29T06:43:00;3.27;;;2.47;;
5345;SDS011;2695;49.444;11.054;2023-07-29T06:45:28;13.53;;;2.70;;
5345;SDS011;2695;49.444;11.054;2023-07-29T06:47:56;6.23;;;2.80;;
5345;SDS011;2695;49.444;11.054;2023-07-29T06:50:26;3.97;;;2.53;;
5345;SDS011;2695;49.444;11.054;2023-07-29T06:52:54;3.30;;;2.40;;
5345;SDS011;2695;49.444;11.054;2023-07-29T06:55:22;3.90;;;2.13;;
5345;SDS011;2695;49.444;11.054;2023-07-29T06:57:50;5.73;;;2.40;;
5345;SDS011;2695;49.444;11.054;2023-07-29T07:00:18;2.43;;;1.90;;
5345;SDS011;2695;49.444;11.054;2023-07-29T07:02:46;4.33;;;2.63;;
5345;SDS011;2695;49.444;11.054;2023-07-29T07:05:14;7.27;;;2.90;;
5345;SDS011;2695;49.444;11.054;2023-07-29T07:07:44;4.50;;;1.80;;
5345;SDS011;2695;49.444;11.054;2023-07-29T07:10:13;9.20;;;2.47;;
5345;SDS011;2695;49.444;11.054;2023-07-29T07:12:42;2.93;;;2.30;;
5345;SDS011;2695;49.444;11.054;2023-07-29T07:15:10;6.03;;;2.23;;
5345;SDS011;2695;49.444;11.054;2023-07-29T07:17:38;3.43;;;2.87;;
5345;SDS011;2695;49.444;11.054;2023-07-29T07:20:07;5.33;;;2.40;;
5345;SDS011;2695;49.444;11.054;2023-07-29T07:22:35;8.03;;;3.03;;
5345;SDS011;2695;49.444;11.054;2023-07-29T07:25:05;5.07;;;2.90;;
5345;SDS011;2695;49.444;11.054;2023-07-29T07:27:34;4.80;;;3.07;;
5345;SDS011;2695;49.444;11.054;2023-07-29T07:30:02;10.03;;;3.57;;
5345;SDS011;2695;49.444;11.054;2023-07-29T07:32:30;3.03;;;2.80;;
5345;SDS011;2695;49.444;11.054;2023-07-29T07:34:58;3.60;;;2.70;;
5345;SDS011;2695;49.444;11.054;2023-07-29T07:37:26;5.87;;;3.27;;
5345;SDS011;2695;49.444;11.054;2023-07-29T07:39:55;5.87;;;3.07;;
5345;SDS011;2695;49.444;11.054;2023-07-29T07:42:24;6.57;;;3.80;;
5345;SDS011;2695;49.444;11.054;2023-07-29T07:44:52;3.67;;;3.37;;
5345;SDS011;2695;49.444;11.054;2023-07-29T07:47:21;4.73;;;3.33;;
5345;SDS011;2695;49.444;11.054;2023-07-29T07:49:49;4.37;;;3.57;;
5345;SDS011;2695;49.444;11.054;2023-07-29T07:52:17;8.37;;;3.33;;
5345;SDS011;2695;49.444;11.054;2023-07-29T07:54:45;6.47;;;3.83;;
5345;SDS011;2695;49.444;11.054;2023-07-29T07:57:19;10.50;;;3.53;;
5345;SDS011;2695;49.444;11.054;2023-07-29T07:59:49;7.33;;;3.50;;
5345;SDS011;2695;49.444;11.054;2023-07-29T08:02:18;4.93;;;3.10;;
5345;SDS011;2695;49.444;11.054;2023-07-29T08:04:47;7.23;;;3.70;;
5345;SDS011;2695;49.444;11.054;2023-07-29T08:07:15;4.17;;;3.60;;
5345;SDS011;2695;49.444;11.054;2023-07-29T08:09:43;4.90;;;3.70;;
5345;SDS011;2695;49.444;11.054;2023-07-29T08:12:12;4.50;;;3.93;;
5345;SDS011;2695;49.444;11.054;2023-07-29T08:14:42;6.83;;;4.20;;
5345;SDS011;2695;49.444;11.054;2023-07-29T08:17:12;18.97;;;5.07;;
5345;SDS011;2695;49.444;11.054;2023-07-29T08:19:40;7.17;;;3.87;;
5345;SDS011;2695;49.444;11.054;2023-07-29T08:22:08;6.47;;;5.43;;
5345;SDS011;2695;49.444;11.054;2023-07-29T08:24:36;6.90;;;4.43;;
5345;SDS011;2695;49.444;11.054;2023-07-29T08:27:04;6.50;;;4.40;;
5345;SDS011;2695;49.444;11.054;2023-07-29T08:29:33;5.90;;;4.60;;
5345;SDS011;2695;49.444;11.054;2023-07-29T08:32:02;6.90;;;5.40;;
5345;SDS011;2695;49.444;11.054;2023-07-29T08:34:31;10.40;;;5.80;;
5345;SDS011;2695;49.444;11.054;2023-07-29T08:37:01;5.13;;;3.83;;
5345;SDS011;2695;49.444;11.054;2023-07-29T08:39:29;5.30;;;4.50;;
5345;SDS011;2695;49.444;11.054;2023-07-29T08:41:57;7.90;;;4.23;;
5345;SDS011;2695;49.444;11.054;2023-07-29T08:44:33;3.93;;;3.53;;
5345;SDS011;2695;49.444;11.054;2023-07-29T08:47:04;5.93;;;3.73;;
5345;SDS011;2695;49.444;11.054;2023-07-29T08:49:34;4.63;;;3.17;;
5345;SDS011;2695;49.444;11.054;2023-07-29T08:52:04;15.83;;;4.27;;
5345;SDS011;2695;49.444;11.054;2023-07-29T08:54:34;4.07;;;3.03;;
5345;SDS011;2695;49.444;11.054;2023-07-29T08:57:02;5.30;;;2.80;;
5345;SDS011;2695;49.444;11.054;2023-07-29T08:59:31;3.00;;;2.50;;
5345;SDS011;2695;49.444;11.054;2023-07-29T09:02:00;3.67;;;2.20;;
5345;SDS011;2695;49.444;11.054;2023-07-29T09:04:29;2.37;;;2.17;;
5345;SDS011;2695;49.444;11.054;2023-07-29T09:06:58;4.87;;;2.73;;
5345;SDS011;2695;49.444;11.054;2023-07-29T09:09:28;5.67;;;3.53;;
5345;SDS011;2695;49.444;11.054;2023-07-29T09:11:56;6.80;;;3.80;;
5345;SDS011;2695;49.444;11.054;2023-07-29T09:14:25;3.90;;;3.50;;
5345;SDS011;2695;49.444;11.054;2023-07-29T09:16:54;5.27;;;3.93;;
5345;SDS011;2695;49.444;11.054;2023-07-29T09:19:26;9.00;;;3.17;;
5345;SDS011;2695;49.444;11.054;2023-07-29T09:21:54;5.50;;;3.10;;
5345;SDS011;2695;49.444;11.054;2023-07-29T09:24:24;4.10;;;3.30;;
5345;SDS011;2695;49.444;11.054;2023-07-29T09:26:55;6.37;;;3.67;;
5345;SDS011;2695;49.444;11.054;2023-07-29T09:29:24;8.57;;;3.70;;
5345;SDS011;2695;49.444;11.054;2023-07-29T09:32:06;8.33;;;3.83;;
5345;SDS011;2695;49.444;11.054;2023-07-29T09:34:46;3.70;;;3.40;;
5345;SDS011;2695;49.444;11.054;2023-07-29T09:37:17;4.30;;;3.43;;
5345;SDS011;2695;49.444;11.054;2023-07-29T09:39:50;4.80;;;3.23;;
5345;SDS011;2695;49.444;11.054;2023-07-29T09:42:18;5.20;;;4.03;;
5345;SDS011;2695;49.444;11.054;2023-07-29T09:44:48;4.47;;;3.90;;
5345;SDS011;2695;49.444;11.054;2023-07-29T09:47:18;4.10;;;3.60;;
5345;SDS011;2695;49.444;11.054;2023-07-29T09:49:48;5.83;;;3.80;;
5345;SDS011;2695;49.444;11.054;2023-07-29T09:52:17;9.50;;;4.13;;
5345;SDS011;2695;49.444;11.054;2023-07-29T09:54:45;4.60;;;3.63;;
5345;SDS011;2695;49.444;11.054;2023-07-29T09:57:16;4.60;;;3.77;;
5345;SDS011;2695;49.444;11.054;2023-07-29T09:59:53;5.40;;;4.63;;
5345;SDS011;2695;49.444;11.054;2023-07-29T10:02:21;7.17;;;5.00;;
5345;SDS011;2695;49.444;11.054;2023-07-29T10:04:51;8.33;;;5.00;;
5345;SDS011;2695;49.444;11.054;2023-07-29T10:07:20;6.13;;;3.20;;
5345;SDS011;2695;49.444;11.054;2023-07-29T10:09:49;6.40;;;3.70;;
5345;SDS011;2695;49.444;11.054;2023-07-29T10:12:21;4.53;;;3.87;;
5345;SDS011;2695;49.444;11.054;2023-07-29T10:14:50;5.00;;;4.50;;
5345;SDS011;2695;49.444;11.054;2023-07-29T10:17:18;5.23;;;4.30;;
5345;SDS011;2695;49.444;11.054;2023-07-29T10:19:48;5.93;;;4.17;;
5345;SDS011;2695;49.444;11.054;2023-07-29T10:22:17;6.03;;;3.53;;
5345;SDS011;2695;49.444;11.054;2023-07-29T10:24:50;4.10;;;3.17;;
5345;SDS011;2695;49.444;11.054;2023-07-29T10:27:29;7.60;;;3.13;;
5345;SDS011;2695;49.444;11.054;2023-07-29T10:29:57;3.73;;;3.33;;
5345;SDS011;2695;49.444;11.054;2023-07-29T10:32:26;3.83;;;2.93;;
5345;SDS011;2695;49.444;11.054;2023-07-29T10:34:55;3.30;;;3.00;;
5345;SDS011;2695;49.444;11.054;2023-07-29T10:37:24;3.20;;;2.90;;
5345;SDS011;2695;49.444;11.054;2023-07-29T10:39:53;5.63;;;3.07;;
5345;SDS011;2695;49.444;11.054;2023-07-29T10:42:28;4.13;;;2.80;;
5345;SDS011;2695;49.444;11.054;2023-07-29T10:44:57;4.50;;;3.10;;
5345;SDS011;2695;49.444;11.054;2023-07-29T10:47:26;6.33;;;3.40;;
5345;SDS011;2695;49.444;11.054;2023-07-29T10:49:56;3.90;;;2.50;;
5345;SDS011;2695;49.444;11.054;2023-07-29T10:52:39;3.07;;;2.10;;
5345;SDS011;2695;49.444;11.054;2023-07-29T10:55:25;6.00;;;2.20;;
5345;SDS011;2695;49.444;11.054;2023-07-29T10:58:11;2.87;;;2.33;;
5345;SDS011;2695;49.444;11.054;2023-07-29T11:00:41;5.13;;;1.58;;
5345;SDS011;2695;49.444;11.054;2023-07-29T11:03:11;2.67;;;1.90;;
5345;SDS011;2695;49.444;11.054;2023-07-29T11:05:42;2.88;;;1.55;;
5345;SDS011;2695;49.444;11.054;2023-07-29T11:08:18;1.60;;;1.40;;
5345;SDS011;2695;49.444;11.054;2023-07-29T11:11:01;2.25;;;1.67;;
5345;SDS011;2695;49.444;11.054;2023-07-29T11:13:33;2.67;;;1.70;;
5345;SDS011;2695;49.444;11.054;2023-07-29T11:16:03;2.58;;;1.80;;
5345;SDS011;2695;49.444;11.054;2023-07-29T11:18:32;1.58;;;1.35;;
5345;SDS011;2695;49.444;11.054;2023-07-29T11:21:02;2.08;;;1.83;;
5345;SDS011;2695;49.444;11.054;2023-07-29T11:23:31;2.05;;;1.65;;
5345;SDS011;2695;49.444;11.054;2023-07-29T11:26:01;2.60;;;1.80;;
5345;SDS011;2695;49.444;11.054;2023-07-29T11:28:30;5.97;;;1.90;;
5345;SDS011;2695;49.444;11.054;2023-07-29T11:31:06;2.40;;;2.15;;
5345;SDS011;2695;49.444;11.054;2023-07-29T11:33:35;4.40;;;2.57;;
5345;SDS011;2695;49.444;11.054;2023-07-29T11:36:05;2.40;;;1.87;;
5345;SDS011;2695;49.444;11.054;2023-07-29T11:38:34;3.83;;;2.00;;
5345;SDS011;2695;49.444;11.054;2023-07-29T11:41:04;8.63;;;2.70;;
5345;SDS011;2695;49.444;11.054;2023-07-29T11:43:34;2.33;;;2.13;;
5345;SDS011;2695;49.444;11.054;2023-07-29T11:46:03;6.40;;;1.90;;
5345;SDS011;2695;49.444;11.054;2023-07-29T11:48:33;2.20;;;2.00;;
5345;SDS011;2695;49.444;11.054;2023-07-29T11:51:02;3.27;;;1.90;;
5345;SDS011;2695;49.444;11.054;2023-07-29T11:53:30;7.20;;;1.90;;
5345;SDS011;2695;49.444;11.054;2023-07-29T11:58:39;6.47;;;1.90;;
5345;SDS011;2695;49.444;11.054;2023-07-29T12:01:07;2.85;;;1.50;;
5345;SDS011;2695;49.444;11.054;2023-07-29T12:03:40;3.17;;;1.95;;
5345;SDS011;2695;49.444;11.054;2023-07-29T12:06:10;2.90;;;1.50;;
5345;SDS011;2695;49.444;11.054;2023-07-29T12:08:39;2.28;;;1.90;;
5345;SDS011;2695;49.444;11.054;2023-07-29T12:11:08;5.00;;;1.33;;
5345;SDS011;2695;49.444;11.054;2023-07-29T12:16:08;3.42;;;2.05;;
5345;SDS011;2695;49.444;11.054;2023-07-29T12:18:37;3.85;;;2.30;;
5345;SDS011;2695;49.444;11.054;2023-07-29T12:21:06;1.70;;;1.60;;
5345;SDS011;2695;49.444;11.054;2023-07-29T12:23:34;1.98;;;1.77;;
5345;SDS011;2695;49.444;11.054;2023-07-29T12:26:03;2.83;;;1.95;;
5345;SDS011;2695;49.444;11.054;2023-07-29T12:28:31;4.63;;;2.08;;
5345;SDS011;2695;49.444;11.054;2023-07-29T12:31:00;3.70;;;2.20;;
5345;SDS011;2695;49.444;11.054;2023-07-29T12:33:31;1.95;;;1.75;;
5345;SDS011;2695;49.444;11.054;2023-07-29T12:36:00;1.60;;;1.50;;
5345;SDS011;2695;49.444;11.054;2023-07-29T12:38:30;8.60;;;1.67;;
5345;SDS011;2695;49.444;11.054;2023-07-29T12:40:58;1.63;;;1.37;;
5345;SDS011;2695;49.444;11.054;2023-07-29T12:43:26;1.53;;;1.43;;
5345;SDS011;2695;49.444;11.054;2023-07-29T12:45:56;1.53;;;1.43;;
5345;SDS011;2695;49.444;11.054;2023-07-29T12:48:24;3.00;;;2.00;;
5345;SDS011;2695;49.444;11.054;2023-07-29T12:50:53;2.08;;;1.75;;
5345;SDS011;2695;49.444;11.054;2023-07-29T12:53:21;6.20;;;2.07;;
5345;SDS011;2695;49.444;11.054;2023-07-29T12:55:50;2.17;;;1.70;;
5345;SDS011;2695;49.444;11.054;2023-07-29T12:58:18;2.10;;;1.47;;
5345;SDS011;2695;49.444;11.054;2023-07-29T13:00:46;2.35;;;2.10;;
5345;SDS011;2695;49.444;11.054;2023-07-29T13:03:14;3.55;;;1.80;;
5345;SDS011;2695;49.444;11.054;2023-07-29T13:05:43;2.15;;;1.50;;
5345;SDS011;2695;49.444;11.054;2023-07-29T13:08:11;3.10;;;1.60;;
5345;SDS011;2695;49.444;11.054;2023-07-29T13:10:39;2.40;;;1.67;;
5345;SDS011;2695;49.444;11.054;2023-07-29T13:13:09;3.40;;;2.03;;
5345;SDS011;2695;49.444;11.054;2023-07-29T13:15:37;5.30;;;1.60;;
5345;SDS011;2695;49.444;11.054;2023-07-29T13:18:05;1.75;;;1.55;;
5345;SDS011;2695;49.444;11.054;2023-07-29T13:20:33;2.78;;;1.50;;
5345;SDS011;2695;49.444;11.054;2023-07-29T13:23:03;6.07;;;1.90;;
5345;SDS011;2695;49.444;11.054;2023-07-29T13:25:31;1.83;;;1.70;;
5345;SDS011;2695;49.444;11.054;2023-07-29T13:27:59;2.20;;;1.97;;
5345;SDS011;2695;49.444;11.054;2023-07-29T13:30:29;5.30;;;2.20;;
5345;SDS011;2695;49.444;11.054;2023-07-29T13:32:58;1.75;;;1.60;;
5345;SDS011;2695;49.444;11.054;2023-07-29T13:35:26;3.00;;;1.58;;
5345;SDS011;2695;49.444;11.054;2023-07-29T13:37:54;4.07;;;1.98;;
5345;SDS011;2695;49.444;11.054;2023-07-29T13:40:22;3.13;;;1.60;;
5345;SDS011;2695;49.444;11.054;2023-07-29T13:42:50;1.80;;;1.52;;
5345;SDS011;2695;49.444;11.054;2023-07-29T13:45:19;3.15;;;2.10;;
5345;SDS011;2695;49.444;11.054;2023-07-29T13:47:48;3.22;;;2.10;;
5345;SDS011;2695;49.444;11.054;2023-07-29T13:50:17;3.03;;;1.40;;
5345;SDS011;2695;49.444;11.054;2023-07-29T13:52:45;1.97;;;1.60;;
5345;SDS011;2695;49.444;11.054;2023-07-29T13:55:13;3.20;;;1.75;;
5345;SDS011;2695;49.444;11.054;2023-07-29T13:57:41;1.50;;;1.40;;
5345;SDS011;2695;49.444;11.054;2023-07-29T14:00:09;1.77;;;1.40;;
5345;SDS011;2695;49.444;11.054;2023-07-29T14:02:38;3.35;;;1.83;;
5345;SDS011;2695;49.444;11.054;2023-07-29T14:05:07;1.33;;;1.20;;
5345;SDS011;2695;49.444;11.054;2023-07-29T14:07:38;1.70;;;1.60;;
5345;SDS011;2695;49.444;11.054;2023-07-29T14:10:06;1.92;;;1.40;;
5345;SDS011;2695;49.444;11.054;2023-07-29T14:12:34;1.25;;;1.15;;
5345;SDS011;2695;49.444;11.054;2023-07-29T14:15:03;1.58;;;1.48;;
5345;SDS011;2695;49.444;11.054;2023-07-29T14:17:32;1.42;;;1.33;;
5345;SDS011;2695;49.444;11.054;2023-07-29T14:20:00;1.55;;;1.40;;
5345;SDS011;2695;49.444;11.054;2023-07-29T14:22:30;1.30;;;1.20;;
5345;SDS011;2695;49.444;11.054;2023-07-29T14:24:58;1.40;;;1.30;;
5345;SDS011;2695;49.444;11.054;2023-07-29T14:27:27;3.35;;;1.85;;
5345;SDS011;2695;49.444;11.054;2023-07-29T14:29:55;1.52;;;1.23;;
5345;SDS011;2695;49.444;11.054;2023-07-29T14:32:23;1.73;;;1.38;;
5345;SDS011;2695;49.444;11.054;2023-07-29T14:34:51;2.42;;;1.67;;
5345;SDS011;2695;49.444;11.054;2023-07-29T14:37:19;1.98;;;1.23;;
5345;SDS011;2695;49.444;11.054;2023-07-29T14:39:48;1.58;;;1.20;;
5345;SDS011;2695;49.444;11.054;2023-07-29T14:42:16;1.13;;;1.02;;
5345;SDS011;2695;49.444;11.054;2023-07-29T14:44:44;1.40;;;1.30;;
5345;SDS011;2695;49.444;11.054;2023-07-29T14:47:12;4.28;;;2.25;;
5345;SDS011;2695;49.444;11.054;2023-07-29T14:49:40;1.60;;;1.20;;
5345;SDS011;2695;49.444;11.054;2023-07-29T14:52:09;1.83;;;1.30;;
5345;SDS011;2695;49.444;11.054;2023-07-29T14:54:37;1.73;;;1.23;;
5345;SDS011;2695;49.444;11.054;2023-07-29T14:57:06;1.73;;;1.40;;
5345;SDS011;2695;49.444;11.054;2023-07-29T14:59:35;1.17;;;1.08;;
5345;SDS011;2695;49.444;11.054;2023-07-29T15:02:03;1.38;;;1.27;;
5345;SDS011;2695;49.444;11.054;2023-07-29T15:04:31;3.97;;;1.30;;
5345;SDS011;2695;49.444;11.054;2023-07-29T15:06:59;1.20;;;1.00;;
5345;SDS011;2695;49.444;11.054;2023-07-29T15:09:27;1.48;;;1.27;;
5345;SDS011;2695;49.444;11.054;2023-07-29T15:11:55;1.80;;;1.38;;
5345;SDS011;2695;49.444;11.054;2023-07-29T15:14:26;1.45;;;1.27;;
5345;SDS011;2695;49.444;11.054;2023-07-29T15:16:54;1.75;;;1.20;;